sensor_id;sensor_type;location;lat;lon;timestamp;P1;durP1;ratioP1;P2;durP2;ratioP2
828;SDS011;396;52.558;13.188;2022-07-05T00:00:55;1.73;;;1.30;;
828;SDS011;396;52.558;13.188;2022-07-05T00:03:22;1.90;;;1.10;;
828;SDS011;396;52.558;13.188;2022-07-05T00:05:48;2.30;;;1.10;;
828;SDS011;396;52.558;13.188;2022-07-05T00:08:16;2.37;;;1.57;;
828;SDS011;396;52.558;13.188;2022-07-05T00:10:42;2.50;;;1.20;;
828;SDS011;396;52.558;13.188;2022-07-05T00:13:10;2.53;;;1.63;;
828;SDS011;396;52.558;13.188;2022-07-05T00:15:37;2.37;;;1.30;;
828;SDS011;396;52.558;13.188;2022-07-05T00:18:04;2.30;;;1.43;;
828;SDS011;396;52.558;13.188;2022-07-05T00:20:31;2.60;;;1.73;;
828;SDS011;396;52.558;13.188;2022-07-05T00:22:58;1.90;;;1.37;;
828;SDS011;396;52.558;13.188;2022-07-05T00:25:25;4.90;;;1.40;;
828;SDS011;396;52.558;13.188;2022-07-05T00:27:51;4.20;;;1.90;;
828;SDS011;396;52.558;13.188;2022-07-05T00:30:19;2.03;;;1.50;;
828;SDS011;396;52.558;13.188;2022-07-05T00:32:46;2.90;;;1.97;;
828;SDS011;396;52.558;13.188;2022-07-05T00:35:13;1.83;;;1.60;;
828;SDS011;396;52.558;13.188;2022-07-05T00:37:40;2.33;;;1.87;;
828;SDS011;396;52.558;13.188;2022-07-05T00:40:06;2.67;;;1.63;;
828;SDS011;396;52.558;13.188;2022-07-05T00:42:34;1.60;;;1.23;;
828;SDS011;396;52.558;13.188;2022-07-05T00:45:02;2.20;;;1.33;;
828;SDS011;396;52.558;13.188;2022-07-05T00:47:31;2.33;;;1.33;;
828;SDS011;396;52.558;13.188;2022-07-05T00:49:57;2.20;;;1.70;;
828;SDS011;396;52.558;13.188;2022-07-05T00:52:24;1.30;;;1.10;;
828;SDS011;396;52.558;13.188;2022-07-05T00:54:50;1.00;;;0.70;;
828;SDS011;396;52.558;13.188;2022-07-05T00:57:18;1.60;;;1.20;;
828;SDS011;396;52.558;13.188;2022-07-05T00:59:46;1.73;;;1.20;;
828;SDS011;396;52.558;13.188;2022-07-05T01:02:12;3.20;;;1.30;;
828;SDS011;396;52.558;13.188;2022-07-05T01:04:40;6.10;;;2.20;;
828;SDS011;396;52.558;13.188;2022-07-05T01:07:07;2.20;;;1.63;;
828;SDS011;396;52.558;13.188;2022-07-05T01:09:34;2.07;;;1.47;;
828;SDS011;396;52.558;13.188;2022-07-05T01:12:01;3.97;;;1.60;;
828;SDS011;396;52.558;13.188;2022-07-05T01:14:28;2.00;;;1.77;;
828;SDS011;396;52.558;13.188;2022-07-05T01:16:55;3.80;;;1.30;;
828;SDS011;396;52.558;13.188;2022-07-05T01:19:21;2.20;;;1.40;;
828;SDS011;396;52.558;13.188;2022-07-05T01:21:51;3.13;;;1.57;;
828;SDS011;396;52.558;13.188;2022-07-05T01:24:19;1.53;;;1.30;;
828;SDS011;396;52.558;13.188;2022-07-05T01:26:47;1.67;;;1.13;;
828;SDS011;396;52.558;13.188;2022-07-05T01:29:15;1.40;;;1.10;;
828;SDS011;396;52.558;13.188;2022-07-05T01:31:42;2.80;;;1.80;;
828;SDS011;396;52.558;13.188;2022-07-05T01:34:09;1.40;;;1.30;;
828;SDS011;396;52.558;13.188;2022-07-05T01:36:37;1.90;;;1.13;;
828;SDS011;396;52.558;13.188;2022-07-05T01:39:04;2.23;;;1.67;;
828;SDS011;396;52.558;13.188;2022-07-05T01:41:34;1.47;;;1.20;;
828;SDS011;396;52.558;13.188;2022-07-05T01:44:01;1.87;;;1.30;;
828;SDS011;396;52.558;13.188;2022-07-05T01:46:31;3.97;;;1.80;;
828;SDS011;396;52.558;13.188;2022-07-05T01:49:03;2.57;;;1.70;;
828;SDS011;396;52.558;13.188;2022-07-05T01:51:33;1.63;;;1.27;;
828;SDS011;396;52.558;13.188;2022-07-05T01:54:01;1.73;;;1.30;;
828;SDS011;396;52.558;13.188;2022-07-05T01:56:27;2.77;;;1.70;;
828;SDS011;396;52.558;13.188;2022-07-05T01:58:55;2.10;;;1.80;;
828;SDS011;396;52.558;13.188;2022-07-05T02:01:33;1.87;;;1.40;;
828;SDS011;396;52.558;13.188;2022-07-05T02:04:00;2.27;;;1.40;;
828;SDS011;396;52.558;13.188;2022-07-05T02:06:27;1.97;;;1.40;;
828;SDS011;396;52.558;13.188;2022-07-05T02:08:54;2.43;;;1.70;;
828;SDS011;396;52.558;13.188;2022-07-05T02:11:20;2.50;;;1.37;;
828;SDS011;396;52.558;13.188;2022-07-05T02:13:47;1.57;;;1.30;;
828;SDS011;396;52.558;13.188;2022-07-05T02:16:15;2.47;;;1.30;;
828;SDS011;396;52.558;13.188;2022-07-05T02:18:42;2.00;;;1.63;;
828;SDS011;396;52.558;13.188;2022-07-05T02:21:08;2.40;;;1.53;;
828;SDS011;396;52.558;13.188;2022-07-05T02:23:35;2.73;;;1.60;;
828;SDS011;396;52.558;13.188;2022-07-05T02:26:01;4.00;;;1.93;;
828;SDS011;396;52.558;13.188;2022-07-05T02:28:28;2.47;;;1.70;;
828;SDS011;396;52.558;13.188;2022-07-05T02:30:55;1.97;;;1.53;;
828;SDS011;396;52.558;13.188;2022-07-05T02:33:23;2.30;;;1.90;;
828;SDS011;396;52.558;13.188;2022-07-05T02:35:50;1.47;;;1.37;;
828;SDS011;396;52.558;13.188;2022-07-05T02:38:16;2.17;;;1.67;;
828;SDS011;396;52.558;13.188;2022-07-05T02:40:43;2.67;;;2.23;;
828;SDS011;396;52.558;13.188;2022-07-05T02:43:09;2.93;;;2.13;;
828;SDS011;396;52.558;13.188;2022-07-05T02:45:36;2.07;;;1.57;;
828;SDS011;396;52.558;13.188;2022-07-05T02:48:03;2.50;;;1.67;;
828;SDS011;396;52.558;13.188;2022-07-05T02:50:31;2.00;;;1.77;;
828;SDS011;396;52.558;13.188;2022-07-05T02:52:58;2.93;;;1.93;;
828;SDS011;396;52.558;13.188;2022-07-05T02:55:24;2.27;;;1.30;;
828;SDS011;396;52.558;13.188;2022-07-05T02:57:51;2.30;;;1.47;;
828;SDS011;396;52.558;13.188;2022-07-05T03:00:17;3.73;;;1.33;;
828;SDS011;396;52.558;13.188;2022-07-05T03:02:44;2.20;;;1.67;;
828;SDS011;396;52.558;13.188;2022-07-05T03:05:11;1.83;;;1.50;;
828;SDS011;396;52.558;13.188;2022-07-05T03:07:38;3.70;;;1.63;;
828;SDS011;396;52.558;13.188;2022-07-05T03:10:05;3.90;;;1.80;;
828;SDS011;396;52.558;13.188;2022-07-05T03:12:32;2.93;;;1.77;;
828;SDS011;396;52.558;13.188;2022-07-05T03:14:59;2.67;;;1.53;;
828;SDS011;396;52.558;13.188;2022-07-05T03:17:25;1.47;;;1.33;;
828;SDS011;396;52.558;13.188;2022-07-05T03:19:52;1.70;;;1.43;;
828;SDS011;396;52.558;13.188;2022-07-05T03:22:19;1.30;;;1.20;;
828;SDS011;396;52.558;13.188;2022-07-05T03:24:46;1.90;;;1.40;;
828;SDS011;396;52.558;13.188;2022-07-05T03:27:13;2.60;;;1.90;;
828;SDS011;396;52.558;13.188;2022-07-05T03:29:40;1.63;;;1.30;;
828;SDS011;396;52.558;13.188;2022-07-05T03:32:06;6.77;;;2.17;;
828;SDS011;396;52.558;13.188;2022-07-05T03:34:33;2.70;;;2.00;;
828;SDS011;396;52.558;13.188;2022-07-05T03:36:59;4.27;;;2.20;;
828;SDS011;396;52.558;13.188;2022-07-05T03:39:26;2.77;;;1.97;;
828;SDS011;396;52.558;13.188;2022-07-05T03:41:54;2.17;;;1.47;;
828;SDS011;396;52.558;13.188;2022-07-05T03:44:21;3.73;;;2.13;;
828;SDS011;396;52.558;13.188;2022-07-05T03:46:47;5.00;;;2.00;;
828;SDS011;396;52.558;13.188;2022-07-05T03:49:14;2.67;;;2.07;;
828;SDS011;396;52.558;13.188;2022-07-05T03:51:40;3.33;;;2.00;;
828;SDS011;396;52.558;13.188;2022-07-05T03:54:07;2.07;;;1.60;;
828;SDS011;396;52.558;13.188;2022-07-05T03:56:34;2.50;;;1.80;;
828;SDS011;396;52.558;13.188;2022-07-05T03:59:02;2.90;;;1.73;;
828;SDS011;396;52.558;13.188;2022-07-05T04:01:28;1.43;;;1.20;;
828;SDS011;396;52.558;13.188;2022-07-05T04:03:55;2.80;;;2.10;;
828;SDS011;396;52.558;13.188;2022-07-05T04:06:21;1.97;;;1.50;;
828;SDS011;396;52.558;13.188;2022-07-05T04:08:48;3.60;;;2.30;;
828;SDS011;396;52.558;13.188;2022-07-05T04:11:15;3.73;;;2.00;;
828;SDS011;396;52.558;13.188;2022-07-05T04:13:42;2.40;;;1.90;;
828;SDS011;396;52.558;13.188;2022-07-05T04:16:10;2.07;;;1.60;;
828;SDS011;396;52.558;13.188;2022-07-05T04:18:36;4.50;;;1.77;;
828;SDS011;396;52.558;13.188;2022-07-05T04:21:03;1.90;;;1.57;;
828;SDS011;396;52.558;13.188;2022-07-05T04:23:31;2.10;;;1.53;;
828;SDS011;396;52.558;13.188;2022-07-05T04:25:58;2.63;;;1.77;;
828;SDS011;396;52.558;13.188;2022-07-05T04:28:26;2.50;;;1.80;;
828;SDS011;396;52.558;13.188;2022-07-05T04:30:54;2.73;;;1.70;;
828;SDS011;396;52.558;13.188;2022-07-05T04:33:22;2.40;;;1.40;;
828;SDS011;396;52.558;13.188;2022-07-05T04:35:50;2.33;;;1.80;;
828;SDS011;396;52.558;13.188;2022-07-05T04:38:16;2.40;;;1.93;;
828;SDS011;396;52.558;13.188;2022-07-05T04:40:43;3.20;;;2.27;;
828;SDS011;396;52.558;13.188;2022-07-05T04:43:09;2.57;;;1.80;;
828;SDS011;396;52.558;13.188;2022-07-05T04:45:36;1.90;;;1.70;;
828;SDS011;396;52.558;13.188;2022-07-05T04:48:03;2.07;;;1.70;;
828;SDS011;396;52.558;13.188;2022-07-05T04:50:32;3.07;;;2.20;;
828;SDS011;396;52.558;13.188;2022-07-05T04:52:58;1.60;;;1.20;;
828;SDS011;396;52.558;13.188;2022-07-05T04:55:25;3.07;;;1.50;;
828;SDS011;396;52.558;13.188;2022-07-05T04:57:51;2.20;;;1.30;;
828;SDS011;396;52.558;13.188;2022-07-05T05:00:18;2.17;;;1.80;;
828;SDS011;396;52.558;13.188;2022-07-05T05:02:44;1.97;;;1.77;;
828;SDS011;396;52.558;13.188;2022-07-05T05:05:11;4.63;;;1.47;;
828;SDS011;396;52.558;13.188;2022-07-05T05:07:42;1.90;;;1.50;;
828;SDS011;396;52.558;13.188;2022-07-05T05:10:09;2.13;;;1.70;;
828;SDS011;396;52.558;13.188;2022-07-05T05:12:36;2.10;;;1.43;;
828;SDS011;396;52.558;13.188;2022-07-05T05:15:03;1.83;;;1.40;;
828;SDS011;396;52.558;13.188;2022-07-05T05:17:33;3.37;;;2.00;;
828;SDS011;396;52.558;13.188;2022-07-05T05:20:01;1.90;;;1.67;;
828;SDS011;396;52.558;13.188;2022-07-05T05:22:28;1.30;;;1.10;;
828;SDS011;396;52.558;13.188;2022-07-05T05:24:55;1.57;;;1.40;;
828;SDS011;396;52.558;13.188;2022-07-05T05:27:22;1.63;;;1.13;;
828;SDS011;396;52.558;13.188;2022-07-05T05:29:49;1.23;;;0.90;;
828;SDS011;396;52.558;13.188;2022-07-05T05:32:15;1.17;;;1.00;;
828;SDS011;396;52.558;13.188;2022-07-05T05:34:42;1.10;;;1.00;;
828;SDS011;396;52.558;13.188;2022-07-05T05:37:08;1.77;;;1.17;;
828;SDS011;396;52.558;13.188;2022-07-05T05:39:35;0.90;;;0.73;;
828;SDS011;396;52.558;13.188;2022-07-05T05:42:03;1.40;;;1.03;;
828;SDS011;396;52.558;13.188;2022-07-05T05:44:31;2.30;;;1.03;;
828;SDS011;396;52.558;13.188;2022-07-05T05:46:58;1.30;;;0.90;;
828;SDS011;396;52.558;13.188;2022-07-05T05:49:24;1.77;;;1.10;;
828;SDS011;396;52.558;13.188;2022-07-05T05:51:51;2.60;;;0.67;;
828;SDS011;396;52.558;13.188;2022-07-05T05:54:17;1.70;;;1.30;;
828;SDS011;396;52.558;13.188;2022-07-05T05:56:44;1.40;;;0.80;;
828;SDS011;396;52.558;13.188;2022-07-05T05:59:12;1.33;;;0.80;;
828;SDS011;396;52.558;13.188;2022-07-05T06:01:38;1.07;;;0.90;;
828;SDS011;396;52.558;13.188;2022-07-05T06:04:05;1.20;;;0.77;;
828;SDS011;396;52.558;13.188;2022-07-05T06:06:32;1.53;;;0.97;;
828;SDS011;396;52.558;13.188;2022-07-05T06:08:58;1.20;;;1.10;;
828;SDS011;396;52.558;13.188;2022-07-05T06:11:26;1.23;;;0.90;;
828;SDS011;396;52.558;13.188;2022-07-05T06:13:52;1.30;;;0.87;;
828;SDS011;396;52.558;13.188;2022-07-05T06:16:20;1.17;;;0.83;;
828;SDS011;396;52.558;13.188;2022-07-05T06:18:47;1.30;;;0.90;;
828;SDS011;396;52.558;13.188;2022-07-05T06:21:13;1.23;;;0.70;;
828;SDS011;396;52.558;13.188;2022-07-05T06:23:40;2.87;;;1.20;;
828;SDS011;396;52.558;13.188;2022-07-05T06:26:07;1.97;;;1.07;;
828;SDS011;396;52.558;13.188;2022-07-05T06:28:34;1.30;;;1.10;;
828;SDS011;396;52.558;13.188;2022-07-05T06:31:01;1.30;;;0.90;;
828;SDS011;396;52.558;13.188;2022-07-05T06:33:29;1.40;;;1.00;;
828;SDS011;396;52.558;13.188;2022-07-05T06:35:55;1.63;;;1.03;;
828;SDS011;396;52.558;13.188;2022-07-05T06:38:22;1.93;;;0.90;;
828;SDS011;396;52.558;13.188;2022-07-05T06:40:48;1.30;;;0.87;;
828;SDS011;396;52.558;13.188;2022-07-05T06:43:15;1.40;;;0.67;;
828;SDS011;396;52.558;13.188;2022-07-05T06:45:42;0.97;;;0.80;;
828;SDS011;396;52.558;13.188;2022-07-05T06:48:09;1.20;;;0.90;;
828;SDS011;396;52.558;13.188;2022-07-05T06:50:38;3.83;;;1.20;;
828;SDS011;396;52.558;13.188;2022-07-05T06:53:07;2.30;;;0.90;;
828;SDS011;396;52.558;13.188;2022-07-05T06:55:35;0.90;;;0.67;;
828;SDS011;396;52.558;13.188;2022-07-05T06:58:02;0.97;;;0.80;;
828;SDS011;396;52.558;13.188;2022-07-05T07:00:30;1.73;;;0.90;;
828;SDS011;396;52.558;13.188;2022-07-05T07:02:58;2.13;;;0.90;;
828;SDS011;396;52.558;13.188;2022-07-05T07:05:25;1.00;;;0.70;;
828;SDS011;396;52.558;13.188;2022-07-05T07:07:53;1.73;;;0.80;;
828;SDS011;396;52.558;13.188;2022-07-05T07:10:38;4.57;;;0.87;;
828;SDS011;396;52.558;13.188;2022-07-05T07:13:04;1.03;;;0.80;;
828;SDS011;396;52.558;13.188;2022-07-05T07:15:31;1.43;;;0.83;;
828;SDS011;396;52.558;13.188;2022-07-05T07:17:59;1.03;;;0.80;;
828;SDS011;396;52.558;13.188;2022-07-05T07:20:26;1.30;;;1.00;;
828;SDS011;396;52.558;13.188;2022-07-05T07:22:54;2.63;;;1.20;;
828;SDS011;396;52.558;13.188;2022-07-05T07:25:21;1.23;;;1.00;;
828;SDS011;396;52.558;13.188;2022-07-05T07:27:49;4.60;;;0.70;;
828;SDS011;396;52.558;13.188;2022-07-05T07:30:17;1.07;;;0.70;;
828;SDS011;396;52.558;13.188;2022-07-05T07:32:45;2.70;;;1.17;;
828;SDS011;396;52.558;13.188;2022-07-05T07:35:12;0.87;;;0.70;;
828;SDS011;396;52.558;13.188;2022-07-05T07:37:39;1.67;;;0.97;;
828;SDS011;396;52.558;13.188;2022-07-05T07:40:08;1.00;;;0.70;;
828;SDS011;396;52.558;13.188;2022-07-05T07:42:35;1.27;;;0.90;;
828;SDS011;396;52.558;13.188;2022-07-05T07:45:02;1.23;;;0.70;;
828;SDS011;396;52.558;13.188;2022-07-05T07:47:29;1.20;;;0.80;;
828;SDS011;396;52.558;13.188;2022-07-05T07:49:55;2.00;;;1.10;;
828;SDS011;396;52.558;13.188;2022-07-05T07:52:22;1.97;;;0.70;;
828;SDS011;396;52.558;13.188;2022-07-05T07:54:49;2.63;;;0.93;;
828;SDS011;396;52.558;13.188;2022-07-05T07:57:17;1.20;;;0.97;;
828;SDS011;396;52.558;13.188;2022-07-05T07:59:43;1.07;;;0.60;;
828;SDS011;396;52.558;13.188;2022-07-05T08:02:10;1.30;;;0.77;;
828;SDS011;396;52.558;13.188;2022-07-05T08:04:37;1.80;;;1.00;;
828;SDS011;396;52.558;13.188;2022-07-05T08:07:04;2.10;;;1.20;;
828;SDS011;396;52.558;13.188;2022-07-05T08:09:30;2.13;;;0.80;;
828;SDS011;396;52.558;13.188;2022-07-05T08:11:57;1.80;;;1.37;;
828;SDS011;396;52.558;13.188;2022-07-05T08:14:25;1.10;;;0.80;;
828;SDS011;396;52.558;13.188;2022-07-05T08:16:52;0.97;;;0.80;;
828;SDS011;396;52.558;13.188;2022-07-05T08:19:19;1.33;;;0.87;;
828;SDS011;396;52.558;13.188;2022-07-05T08:22:04;1.47;;;0.83;;
828;SDS011;396;52.558;13.188;2022-07-05T08:24:32;1.20;;;0.73;;
828;SDS011;396;52.558;13.188;2022-07-05T08:26:59;1.33;;;1.07;;
828;SDS011;396;52.558;13.188;2022-07-05T08:29:27;0.90;;;0.70;;
828;SDS011;396;52.558;13.188;2022-07-05T08:31:53;1.73;;;0.90;;
828;SDS011;396;52.558;13.188;2022-07-05T08:34:20;1.40;;;0.90;;
828;SDS011;396;52.558;13.188;2022-07-05T08:36:47;2.33;;;0.80;;
828;SDS011;396;52.558;13.188;2022-07-05T08:39:14;1.73;;;1.30;;
828;SDS011;396;52.558;13.188;2022-07-05T08:41:42;2.40;;;0.97;;
828;SDS011;396;52.558;13.188;2022-07-05T08:44:13;1.27;;;0.80;;
828;SDS011;396;52.558;13.188;2022-07-05T08:46:45;1.53;;;1.00;;
828;SDS011;396;52.558;13.188;2022-07-05T08:49:14;5.13;;;1.13;;
828;SDS011;396;52.558;13.188;2022-07-05T08:51:41;0.80;;;0.60;;
828;SDS011;396;52.558;13.188;2022-07-05T08:54:09;3.17;;;1.10;;
828;SDS011;396;52.558;13.188;2022-07-05T08:56:36;1.30;;;0.90;;
828;SDS011;396;52.558;13.188;2022-07-05T08:59:03;2.00;;;0.70;;
828;SDS011;396;52.558;13.188;2022-07-05T09:01:30;1.00;;;0.70;;
828;SDS011;396;52.558;13.188;2022-07-05T09:04:01;1.00;;;0.63;;
828;SDS011;396;52.558;13.188;2022-07-05T09:06:31;0.90;;;0.50;;
828;SDS011;396;52.558;13.188;2022-07-05T09:09:01;1.00;;;0.63;;
828;SDS011;396;52.558;13.188;2022-07-05T09:11:30;0.90;;;0.60;;
828;SDS011;396;52.558;13.188;2022-07-05T09:14:05;1.00;;;0.60;;
828;SDS011;396;52.558;13.188;2022-07-05T09:16:32;1.20;;;0.80;;
828;SDS011;396;52.558;13.188;2022-07-05T09:19:06;1.23;;;0.93;;
828;SDS011;396;52.558;13.188;2022-07-05T09:21:33;0.80;;;0.50;;
828;SDS011;396;52.558;13.188;2022-07-05T09:24:02;1.30;;;0.80;;
828;SDS011;396;52.558;13.188;2022-07-05T09:26:33;2.13;;;0.93;;
828;SDS011;396;52.558;13.188;2022-07-05T09:29:00;1.23;;;0.77;;
828;SDS011;396;52.558;13.188;2022-07-05T09:31:29;1.10;;;0.60;;
828;SDS011;396;52.558;13.188;2022-07-05T09:34:02;1.47;;;0.80;;
828;SDS011;396;52.558;13.188;2022-07-05T09:36:48;1.07;;;0.60;;
828;SDS011;396;52.558;13.188;2022-07-05T09:39:16;3.23;;;1.00;;
828;SDS011;396;52.558;13.188;2022-07-05T09:41:43;1.43;;;0.80;;
828;SDS011;396;52.558;13.188;2022-07-05T09:44:10;1.20;;;0.80;;
828;SDS011;396;52.558;13.188;2022-07-05T09:46:36;1.30;;;0.83;;
828;SDS011;396;52.558;13.188;2022-07-05T09:49:03;0.80;;;0.60;;
828;SDS011;396;52.558;13.188;2022-07-05T09:51:30;1.97;;;1.20;;
828;SDS011;396;52.558;13.188;2022-07-05T09:54:15;1.50;;;0.90;;
828;SDS011;396;52.558;13.188;2022-07-05T09:56:45;7.23;;;0.90;;
828;SDS011;396;52.558;13.188;2022-07-05T09:59:13;1.60;;;0.87;;
828;SDS011;396;52.558;13.188;2022-07-05T10:01:44;1.03;;;0.70;;
828;SDS011;396;52.558;13.188;2022-07-05T10:04:11;2.10;;;1.20;;
828;SDS011;396;52.558;13.188;2022-07-05T10:06:39;1.23;;;0.73;;
828;SDS011;396;52.558;13.188;2022-07-05T10:09:07;1.77;;;1.17;;
828;SDS011;396;52.558;13.188;2022-07-05T10:11:35;1.83;;;1.30;;
828;SDS011;396;52.558;13.188;2022-07-05T10:14:06;3.30;;;1.00;;
828;SDS011;396;52.558;13.188;2022-07-05T10:16:37;3.80;;;1.03;;
828;SDS011;396;52.558;13.188;2022-07-05T10:19:04;1.83;;;0.90;;
828;SDS011;396;52.558;13.188;2022-07-05T10:21:36;2.20;;;1.47;;
828;SDS011;396;52.558;13.188;2022-07-05T10:24:03;1.70;;;1.13;;
828;SDS011;396;52.558;13.188;2022-07-05T10:26:32;4.13;;;0.80;;
828;SDS011;396;52.558;13.188;2022-07-05T10:28:58;4.07;;;1.30;;
828;SDS011;396;52.558;13.188;2022-07-05T10:31:26;1.17;;;0.67;;
828;SDS011;396;52.558;13.188;2022-07-05T10:33:54;1.20;;;0.93;;
828;SDS011;396;52.558;13.188;2022-07-05T10:36:22;1.10;;;0.80;;
828;SDS011;396;52.558;13.188;2022-07-05T10:38:49;1.50;;;0.83;;
828;SDS011;396;52.558;13.188;2022-07-05T10:41:17;0.80;;;0.60;;
828;SDS011;396;52.558;13.188;2022-07-05T10:43:53;1.57;;;0.80;;
828;SDS011;396;52.558;13.188;2022-07-05T10:46:32;1.40;;;0.97;;
828;SDS011;396;52.558;13.188;2022-07-05T10:49:09;2.43;;;1.10;;
828;SDS011;396;52.558;13.188;2022-07-05T10:51:36;1.10;;;0.83;;
828;SDS011;396;52.558;13.188;2022-07-05T10:54:03;1.43;;;0.90;;
828;SDS011;396;52.558;13.188;2022-07-05T10:56:29;2.17;;;1.10;;
828;SDS011;396;52.558;13.188;2022-07-05T10:59:07;1.60;;;1.00;;
828;SDS011;396;52.558;13.188;2022-07-05T11:01:37;3.30;;;1.10;;
828;SDS011;396;52.558;13.188;2022-07-05T11:04:12;1.60;;;0.97;;
828;SDS011;396;52.558;13.188;2022-07-05T11:06:45;1.00;;;0.80;;
828;SDS011;396;52.558;13.188;2022-07-05T11:09:15;1.47;;;1.17;;
828;SDS011;396;52.558;13.188;2022-07-05T11:11:43;1.27;;;0.77;;
828;SDS011;396;52.558;13.188;2022-07-05T11:14:32;1.10;;;0.77;;
828;SDS011;396;52.558;13.188;2022-07-05T11:17:18;1.33;;;1.00;;
828;SDS011;396;52.558;13.188;2022-07-05T11:20:01;1.00;;;0.50;;
828;SDS011;396;52.558;13.188;2022-07-05T11:22:31;1.67;;;0.90;;
828;SDS011;396;52.558;13.188;2022-07-05T11:24:58;1.20;;;1.00;;
828;SDS011;396;52.558;13.188;2022-07-05T11:27:26;1.47;;;0.83;;
828;SDS011;396;52.558;13.188;2022-07-05T11:29:55;1.30;;;0.90;;
828;SDS011;396;52.558;13.188;2022-07-05T11:32:23;1.50;;;0.87;;
828;SDS011;396;52.558;13.188;2022-07-05T11:35:11;1.00;;;0.80;;
828;SDS011;396;52.558;13.188;2022-07-05T11:40:31;0.90;;;0.70;;
828;SDS011;396;52.558;13.188;2022-07-05T11:42:58;2.37;;;0.87;;
828;SDS011;396;52.558;13.188;2022-07-05T11:45:29;0.80;;;0.70;;
828;SDS011;396;52.558;13.188;2022-07-05T11:47:56;0.90;;;0.63;;
828;SDS011;396;52.558;13.188;2022-07-05T11:50:28;2.17;;;0.70;;
828;SDS011;396;52.558;13.188;2022-07-05T11:52:56;1.30;;;0.80;;
828;SDS011;396;52.558;13.188;2022-07-05T11:55:24;2.27;;;1.30;;
828;SDS011;396;52.558;13.188;2022-07-05T11:57:52;1.07;;;0.70;;
828;SDS011;396;52.558;13.188;2022-07-05T12:00:26;1.10;;;0.90;;
828;SDS011;396;52.558;13.188;2022-07-05T12:02:55;0.90;;;0.50;;
828;SDS011;396;52.558;13.188;2022-07-05T12:05:22;1.40;;;0.70;;
828;SDS011;396;52.558;13.188;2022-07-05T12:07:49;1.10;;;0.70;;
828;SDS011;396;52.558;13.188;2022-07-05T12:10:17;0.90;;;0.80;;
828;SDS011;396;52.558;13.188;2022-07-05T12:13:05;1.43;;;0.90;;
828;SDS011;396;52.558;13.188;2022-07-05T12:15:34;1.30;;;1.00;;
828;SDS011;396;52.558;13.188;2022-07-05T12:18:04;1.27;;;0.90;;
828;SDS011;396;52.558;13.188;2022-07-05T12:20:31;2.87;;;1.10;;
828;SDS011;396;52.558;13.188;2022-07-05T12:23:00;1.90;;;0.90;;
828;SDS011;396;52.558;13.188;2022-07-05T12:25:28;1.00;;;0.60;;
828;SDS011;396;52.558;13.188;2022-07-05T12:27:56;1.00;;;0.67;;
828;SDS011;396;52.558;13.188;2022-07-05T12:30:24;1.47;;;0.80;;
828;SDS011;396;52.558;13.188;2022-07-05T12:32:53;1.13;;;0.77;;
828;SDS011;396;52.558;13.188;2022-07-05T12:35:31;1.90;;;0.70;;
828;SDS011;396;52.558;13.188;2022-07-05T12:38:03;2.10;;;1.10;;
828;SDS011;396;52.558;13.188;2022-07-05T12:40:31;1.30;;;0.90;;
828;SDS011;396;52.558;13.188;2022-07-05T12:43:05;1.00;;;0.77;;
828;SDS011;396;52.558;13.188;2022-07-05T12:45:33;1.17;;;0.70;;
828;SDS011;396;52.558;13.188;2022-07-05T12:48:02;1.63;;;0.80;;
828;SDS011;396;52.558;13.188;2022-07-05T12:50:30;0.97;;;0.70;;
828;SDS011;396;52.558;13.188;2022-07-05T12:53:10;1.53;;;1.10;;
828;SDS011;396;52.558;13.188;2022-07-05T12:55:58;1.10;;;0.80;;
828;SDS011;396;52.558;13.188;2022-07-05T12:58:47;0.80;;;0.60;;
828;SDS011;396;52.558;13.188;2022-07-05T13:01:19;1.20;;;0.70;;
828;SDS011;396;52.558;13.188;2022-07-05T13:03:58;1.23;;;0.90;;
828;SDS011;396;52.558;13.188;2022-07-05T13:09:31;1.40;;;0.70;;
828;SDS011;396;52.558;13.188;2022-07-05T13:12:06;1.47;;;1.07;;
828;SDS011;396;52.558;13.188;2022-07-05T13:14:37;2.30;;;0.97;;
828;SDS011;396;52.558;13.188;2022-07-05T13:17:05;2.07;;;0.90;;
828;SDS011;396;52.558;13.188;2022-07-05T13:19:33;1.47;;;0.70;;
828;SDS011;396;52.558;13.188;2022-07-05T13:22:00;1.63;;;0.97;;
828;SDS011;396;52.558;13.188;2022-07-05T13:24:27;0.97;;;0.70;;
828;SDS011;396;52.558;13.188;2022-07-05T13:26:54;1.03;;;0.77;;
828;SDS011;396;52.558;13.188;2022-07-05T13:29:20;1.63;;;0.70;;
828;SDS011;396;52.558;13.188;2022-07-05T13:31:47;0.80;;;0.70;;
828;SDS011;396;52.558;13.188;2022-07-05T13:34:14;1.10;;;0.70;;
828;SDS011;396;52.558;13.188;2022-07-05T13:36:42;1.30;;;0.90;;
828;SDS011;396;52.558;13.188;2022-07-05T13:39:09;1.33;;;0.90;;
828;SDS011;396;52.558;13.188;2022-07-05T13:41:36;1.47;;;0.90;;
828;SDS011;396;52.558;13.188;2022-07-05T13:44:03;5.60;;;0.90;;
828;SDS011;396;52.558;13.188;2022-07-05T13:46:30;1.10;;;0.70;;
828;SDS011;396;52.558;13.188;2022-07-05T13:48:57;1.33;;;0.70;;
828;SDS011;396;52.558;13.188;2022-07-05T13:51:23;0.87;;;0.60;;
828;SDS011;396;52.558;13.188;2022-07-05T13:53:51;0.90;;;0.53;;
828;SDS011;396;52.558;13.188;2022-07-05T13:56:18;1.30;;;0.70;;
828;SDS011;396;52.558;13.188;2022-07-05T13:58:44;1.43;;;0.60;;
828;SDS011;396;52.558;13.188;2022-07-05T14:01:11;0.90;;;0.70;;
828;SDS011;396;52.558;13.188;2022-07-05T14:03:38;1.40;;;0.90;;
828;SDS011;396;52.558;13.188;2022-07-05T14:06:04;1.00;;;0.70;;
828;SDS011;396;52.558;13.188;2022-07-05T14:08:31;1.40;;;0.83;;
828;SDS011;396;52.558;13.188;2022-07-05T14:10:59;1.53;;;0.70;;
828;SDS011;396;52.558;13.188;2022-07-05T14:13:27;1.03;;;0.70;;
828;SDS011;396;52.558;13.188;2022-07-05T14:15:54;0.80;;;0.60;;
828;SDS011;396;52.558;13.188;2022-07-05T14:18:21;0.87;;;0.60;;
828;SDS011;396;52.558;13.188;2022-07-05T14:20:49;1.10;;;0.70;;
828;SDS011;396;52.558;13.188;2022-07-05T14:23:16;1.17;;;0.83;;
828;SDS011;396;52.558;13.188;2022-07-05T14:25:43;1.10;;;0.80;;
828;SDS011;396;52.558;13.188;2022-07-05T14:28:12;1.00;;;0.80;;
828;SDS011;396;52.558;13.188;2022-07-05T14:30:39;0.80;;;0.60;;
828;SDS011;396;52.558;13.188;2022-07-05T14:33:08;1.17;;;0.77;;
828;SDS011;396;52.558;13.188;2022-07-05T14:35:36;0.73;;;0.53;;
828;SDS011;396;52.558;13.188;2022-07-05T14:38:03;1.63;;;1.10;;
828;SDS011;396;52.558;13.188;2022-07-05T14:40:31;0.80;;;0.70;;
828;SDS011;396;52.558;13.188;2022-07-05T14:42:58;0.80;;;0.70;;
828;SDS011;396;52.558;13.188;2022-07-05T14:45:27;1.30;;;0.90;;
828;SDS011;396;52.558;13.188;2022-07-05T14:47:54;1.47;;;1.00;;
828;SDS011;396;52.558;13.188;2022-07-05T14:50:22;1.00;;;0.70;;
828;SDS011;396;52.558;13.188;2022-07-05T14:52:49;1.10;;;0.70;;
828;SDS011;396;52.558;13.188;2022-07-05T14:55:16;0.70;;;0.50;;
828;SDS011;396;52.558;13.188;2022-07-05T14:57:43;0.90;;;0.67;;
828;SDS011;396;52.558;13.188;2022-07-05T15:00:10;1.00;;;0.70;;
828;SDS011;396;52.558;13.188;2022-07-05T15:02:40;4.67;;;1.17;;
828;SDS011;396;52.558;13.188;2022-07-05T15:05:08;1.50;;;0.93;;
828;SDS011;396;52.558;13.188;2022-07-05T15:07:35;1.10;;;0.80;;
828;SDS011;396;52.558;13.188;2022-07-05T15:10:02;2.67;;;1.00;;
828;SDS011;396;52.558;13.188;2022-07-05T15:12:29;0.93;;;0.70;;
828;SDS011;396;52.558;13.188;2022-07-05T15:14:55;1.00;;;0.70;;
828;SDS011;396;52.558;13.188;2022-07-05T15:17:22;1.00;;;0.63;;
828;SDS011;396;52.558;13.188;2022-07-05T15:19:50;1.30;;;0.80;;
828;SDS011;396;52.558;13.188;2022-07-05T15:22:17;1.20;;;0.87;;
828;SDS011;396;52.558;13.188;2022-07-05T15:24:45;1.10;;;0.83;;
828;SDS011;396;52.558;13.188;2022-07-05T15:27:12;1.03;;;0.80;;
828;SDS011;396;52.558;13.188;2022-07-05T15:29:38;2.53;;;1.00;;
828;SDS011;396;52.558;13.188;2022-07-05T15:32:07;1.30;;;1.00;;
828;SDS011;396;52.558;13.188;2022-07-05T15:34:34;1.27;;;0.80;;
828;SDS011;396;52.558;13.188;2022-07-05T15:37:02;1.00;;;0.73;;
828;SDS011;396;52.558;13.188;2022-07-05T15:39:31;1.00;;;0.60;;
828;SDS011;396;52.558;13.188;2022-07-05T15:42:07;1.00;;;0.90;;